Time;durP1;ratioP1;P1;durP2;ratioP2;P2;SDS_P1;SDS_P2;PMS_P1;PMS_P2;Temp;Humidity;BMP_temperature;BMP_pressure;BME280_temperature;BME280_humidity;BME280_pressure;Samples;Min_cycle;Max_cycle;Signal;HPM_P1;HPM_P2
2022/04/08 00:02:24;;;;;;;;;5.00;1.00;;;;;5.67;89.68;-18622.97;4952235;28;11019;-69
2022/04/08 00:04:52;;;;;;;;;1.75;1.75;;;;;5.58;89.19;-18620.41;4950857;28;10910;-70
2022/04/08 00:07:18;;;;;;;;;0.00;0.00;;;;;5.61;90.25;-18621.16;4952310;28;11070;-72
2022/04/08 00:09:44;;;;;;;;;0.00;0.00;;;;;5.55;89.60;-18619.50;4952776;28;10761;-71
2022/04/08 00:12:11;;;;;;;;;1.00;0.00;;;;;5.63;88.90;-18621.78;4951348;28;10877;-73
2022/04/08 00:14:38;;;;;;;;;6.00;3.00;;;;;5.47;87.15;-18617.09;4959511;28;10757;-72
2022/04/08 00:17:04;;;;;;;;;2.75;1.00;;;;;5.51;87.30;-18618.44;4951427;28;10992;-72
2022/04/08 00:19:32;;;;;;;;;2.50;1.50;;;;;5.33;85.48;-18612.84;4950326;29;10839;-73
2022/04/08 00:22:00;;;;;;;;;0.00;0.00;;;;;5.37;85.41;-18614.06;4950851;28;10937;-69
2022/04/08 00:24:27;;;;;;;;;0.00;0.00;;;;;5.31;84.74;-18612.25;4953639;28;10937;-72
2022/04/08 00:26:53;;;;;;;;;1.25;0.00;;;;;5.38;84.58;-18614.50;4950291;28;11075;-70
2022/04/08 00:29:20;;;;;;;;;0.75;0.00;;;;;5.28;84.16;-18611.34;4953856;28;10833;-71
2022/04/08 00:31:50;;;;;;;;;1.00;1.00;;;;;5.28;84.35;-18611.50;4951242;28;11016;-71
2022/04/08 00:34:17;;;;;;;;;0.50;0.50;;;;;5.31;84.78;-18612.25;4951330;28;10990;-71
2022/04/08 00:36:43;;;;;;;;;1.25;1.25;;;;;5.28;84.08;-18611.50;4952219;28;10771;-71
2022/04/08 00:39:11;;;;;;;;;0.00;0.00;;;;;5.34;85.32;-18613.16;4950251;28;10888;-70
2022/04/08 00:41:38;;;;;;;;;2.00;0.00;;;;;5.33;85.68;-18613.00;4966203;28;10998;-70
2022/04/08 00:44:05;;;;;;;;;1.75;0.00;;;;;5.39;86.13;-18614.66;4950288;28;10918;-71
2022/04/08 00:46:31;;;;;;;;;0.00;0.00;;;;;5.39;86.31;-18614.66;4955345;28;10942;-70
2022/04/08 00:48:58;;;;;;;;;1.75;1.00;;;;;5.29;86.06;-18611.63;4954092;28;10902;-70
2022/04/08 00:51:24;;;;;;;;;1.00;0.25;;;;;5.32;86.44;-18612.53;4955762;28;10944;-71
2022/04/08 00:53:51;;;;;;;;;1.00;0.00;;;;;5.29;85.79;-18611.63;4949105;28;11049;-72
2022/04/08 00:56:21;;;;;;;;;1.00;1.00;;;;;5.27;85.67;-18611.03;4959160;28;10841;-72
2022/04/08 00:58:47;;;;;;;;;1.00;1.00;;;;;5.31;85.30;-18612.41;4953783;28;11021;-72
2022/04/08 01:01:14;;;;;;;;;0.00;0.00;;;;;5.30;85.51;-18612.09;4953949;28;11005;-72
2022/04/08 01:03:41;;;;;;;;;0.00;0.00;;;;;5.31;85.28;-18612.41;4949967;28;10982;-72
2022/04/08 01:06:08;;;;;;;;;1.75;0.75;;;;;5.34;85.10;-18613.31;4936292;29;10955;-72
2022/04/08 01:08:35;;;;;;;;;0.50;0.00;;;;;5.28;84.19;-18611.50;4949496;28;10915;-71
2022/04/08 01:11:02;;;;;;;;;0.00;0.00;;;;;5.31;83.90;-18612.41;4953833;28;10851;-71
2022/04/08 01:13:29;;;;;;;;;0.00;0.00;;;;;5.24;83.47;-18610.28;4953186;28;10843;-71
2022/04/08 01:15:55;;;;;;;;;0.00;0.00;;;;;5.21;82.83;-18609.53;4955233;28;10918;-72
2022/04/08 01:18:22;;;;;;;;;1.50;1.00;;;;;5.24;82.73;-18610.28;4954553;28;10917;-72
2022/04/08 01:20:48;;;;;;;;;1.00;0.00;;;;;5.26;83.05;-18610.88;4954874;28;11436;-73
2022/04/08 01:23:17;;;;;;;;;2.75;0.50;;;;;5.25;82.96;-18610.72;4953525;28;10965;-70
2022/04/08 01:25:44;;;;;;;;;0.25;0.25;;;;;5.21;81.91;-18609.53;4949690;28;10881;-70
2022/04/08 01:28:10;;;;;;;;;0.00;0.00;;;;;5.24;81.36;-18610.28;4954038;28;10748;-70
2022/04/08 01:30:37;;;;;;;;;0.00;0.00;;;;;5.20;80.99;-18609.22;4953484;28;10826;-72
2022/04/08 01:33:03;;;;;;;;;0.25;0.00;;;;;5.28;81.25;-18611.34;4945226;28;10969;-70
2022/04/08 01:35:31;;;;;;;;;0.00;0.00;;;;;5.28;80.55;-18611.34;4953022;28;10871;-71
2022/04/08 01:37:57;;;;;;;;;0.00;0.00;;;;;5.22;79.43;-18609.81;4952682;28;10975;-71
2022/04/08 01:40:23;;;;;;;;;0.00;0.00;;;;;5.25;78.81;-18610.59;4948259;28;11583;-70
2022/04/08 01:42:50;;;;;;;;;1.25;0.00;;;;;5.28;79.30;-18611.50;4954142;28;10961;-70
2022/04/08 01:45:16;;;;;;;;;0.00;0.00;;;;;5.28;77.27;-18611.34;4954313;28;11196;-72
2022/04/08 01:47:43;;;;;;;;;0.00;0.00;;;;;5.25;77.33;-18610.59;4952802;28;11604;-71
2022/04/08 01:50:10;;;;;;;;;1.00;0.00;;;;;5.28;77.04;-18611.34;4939653;28;11197;-72
2022/04/08 01:52:37;;;;;;;;;0.00;0.00;;;;;5.16;75.38;-18607.84;4942025;28;11098;-71
2022/04/08 01:55:05;;;;;;;;;0.00;0.00;;;;;5.23;74.49;-18610.13;4952016;28;10917;-69
2022/04/08 01:57:32;;;;;;;;;1.00;0.00;;;;;5.20;73.18;-18609.06;4968242;28;10920;-72
2022/04/08 01:59:58;;;;;;;;;0.00;0.00;;;;;5.21;73.66;-18609.53;4954385;28;11799;-71
2022/04/08 02:02:25;;;;;;;;;0.00;0.00;;;;;5.16;73.13;-18607.84;4968718;28;11158;-70
2022/04/08 02:04:51;;;;;;;;;0.00;0.00;;;;;5.15;73.19;-18607.56;4947775;28;10923;-71
2022/04/08 02:07:17;;;;;;;;;0.00;0.00;;;;;5.23;74.30;-18609.97;4964910;28;10911;-71
2022/04/08 02:09:44;;;;;;;;;0.00;0.00;;;;;5.20;73.58;-18609.06;4949959;28;11185;-72
2022/04/08 02:12:10;;;;;;;;;0.00;0.00;;;;;5.22;74.24;-18609.81;4953664;28;11279;-72
2022/04/08 02:14:38;;;;;;;;;0.00;0.00;;;;;5.22;74.35;-18609.81;4953060;28;11786;-71
2022/04/08 02:17:05;;;;;;;;;1.00;0.00;;;;;5.23;74.20;-18609.97;4953242;28;11057;-71
2022/04/08 02:19:31;;;;;;;;;0.00;0.00;;;;;5.20;74.67;-18609.06;4953679;28;11170;-72
2022/04/08 02:21:59;;;;;;;;;2.00;1.00;;;;;5.22;75.15;-18609.69;4951290;28;11136;-72
2022/04/08 02:24:26;;;;;;;;;0.00;0.00;;;;;5.25;75.53;-18610.72;4967700;28;11013;-72
2022/04/08 02:26:52;;;;;;;;;1.00;0.00;;;;;5.22;76.20;-18609.69;4953480;28;11780;-71
2022/04/08 02:29:19;;;;;;;;;1.50;0.00;;;;;5.24;76.95;-18610.28;4934435;29;11633;-70
2022/04/08 02:31:45;;;;;;;;;0.50;0.00;;;;;5.20;76.77;-18609.22;4934181;29;10917;-70
2022/04/08 02:34:13;;;;;;;;;0.50;0.50;;;;;5.21;76.31;-18609.38;4952119;28;11002;-71
2022/04/08 02:36:39;;;;;;;;;0.00;0.00;;;;;5.27;77.29;-18611.19;4952247;28;10986;-70
2022/04/08 02:39:05;;;;;;;;;2.00;0.00;;;;;5.28;77.48;-18611.34;4959676;28;11192;-71
2022/04/08 02:41:32;;;;;;;;;0.00;0.00;;;;;5.28;78.08;-18611.50;4952845;28;11081;-70
2022/04/08 02:43:58;;;;;;;;;2.00;0.00;;;;;5.28;78.54;-18611.50;4953006;28;11095;-71
2022/04/08 02:46:25;;;;;;;;;1.00;0.00;;;;;5.29;79.24;-18611.63;4935263;29;11166;-68
2022/04/08 02:48:51;;;;;;;;;1.50;0.75;;;;;5.29;79.48;-18611.63;4963271;28;11092;-71
2022/04/08 02:51:18;;;;;;;;;0.00;0.00;;;;;5.26;79.51;-18610.88;4952760;28;10925;-72
2022/04/08 02:53:44;;;;;;;;;0.75;0.75;;;;;5.29;79.90;-18611.63;4952450;28;10904;-71
2022/04/08 02:56:10;;;;;;;;;1.75;0.00;;;;;5.28;80.52;-18611.50;4952114;28;11097;-71
2022/04/08 02:58:37;;;;;;;;;2.50;0.75;;;;;5.27;81.06;-18611.19;4958989;28;11102;-71
2022/04/08 03:01:04;;;;;;;;;1.25;1.25;;;;;5.31;81.01;-18612.41;4950879;28;11069;-70
2022/04/08 03:03:31;;;;;;;;;1.50;1.00;;;;;5.25;81.28;-18610.72;4961311;28;11070;-70
2022/04/08 03:05:58;;;;;;;;;0.00;0.00;;;;;5.27;81.26;-18611.19;4953130;28;10984;-70
2022/04/08 03:08:24;;;;;;;;;1.00;1.00;;;;;5.29;81.16;-18611.78;4951902;28;10922;-70
2022/04/08 03:10:51;;;;;;;;;0.75;0.00;;;;;5.22;81.49;-18609.81;4940804;28;10851;-70
2022/04/08 03:13:17;;;;;;;;;1.00;0.00;;;;;5.18;81.34;-18608.63;4947340;28;11144;-70
2022/04/08 03:15:44;;;;;;;;;0.00;0.00;;;;;5.34;81.94;-18613.16;4952620;28;11022;-70
2022/04/08 03:18:11;;;;;;;;;0.50;0.50;;;;;5.35;81.70;-18613.59;4952114;28;10852;-70
2022/04/08 03:20:38;;;;;;;;;2.00;1.00;;;;;5.33;81.92;-18612.84;4951398;28;11044;-70
2022/04/08 03:23:05;;;;;;;;;1.00;0.50;;;;;5.33;81.77;-18613.00;4951685;28;10845;-70
2022/04/08 03:25:31;;;;;;;;;0.00;0.00;;;;;5.36;82.15;-18613.75;4952465;28;10947;-71
2022/04/08 03:27:58;;;;;;;;;1.75;1.25;;;;;5.32;82.28;-18612.53;4951771;28;11016;-70
2022/04/08 03:30:27;;;;;;;;;1.00;1.00;;;;;5.35;82.22;-18613.47;4966745;28;11098;-70
2022/04/08 03:32:54;;;;;;;;;0.00;0.00;;;;;5.32;81.68;-18612.53;4951819;28;10911;-71
2022/04/08 03:35:21;;;;;;;;;0.25;0.25;;;;;5.35;82.21;-18613.59;4950907;29;10908;-71
2022/04/08 03:37:50;;;;;;;;;0.00;0.00;;;;;5.34;82.29;-18613.16;4951844;28;10949;-70
2022/04/08 03:40:17;;;;;;;;;0.00;0.00;;;;;5.35;82.21;-18613.59;4951771;28;11080;-69
2022/04/08 03:42:43;;;;;;;;;0.00;0.00;;;;;5.35;82.22;-18613.47;4951673;28;11028;-69
2022/04/08 03:45:11;;;;;;;;;1.50;0.00;;;;;5.36;82.40;-18613.75;4952447;28;11010;-69
2022/04/08 03:47:38;;;;;;;;;1.50;1.50;;;;;5.38;82.37;-18614.38;4952024;28;10899;-69
2022/04/08 03:50:05;;;;;;;;;1.00;1.00;;;;;5.37;82.29;-18614.06;4949579;29;11246;-69
2022/04/08 03:52:32;;;;;;;;;0.00;0.00;;;;;5.38;82.46;-18614.50;4951918;28;11806;-70
2022/04/08 03:55:01;;;;;;;;;0.50;0.50;;;;;5.30;82.88;-18612.09;4951891;28;10942;-68
2022/04/08 03:57:28;;;;;;;;;5.00;2.00;;;;;5.32;83.05;-18612.69;4963050;28;10977;-69
2022/04/08 03:59:55;;;;;;;;;1.00;1.00;;;;;5.33;82.83;-18613.00;4933385;29;10995;-69
2022/04/08 04:02:22;;;;;;;;;1.00;0.00;;;;;5.34;83.32;-18613.16;4937100;29;10826;-69
2022/04/08 04:04:49;;;;;;;;;0.75;0.00;;;;;5.34;83.31;-18613.31;4950988;28;11537;-69
2022/04/08 04:07:15;;;;;;;;;0.00;0.00;;;;;5.33;83.35;-18613.00;4949378;28;10859;-69
2022/04/08 04:09:42;;;;;;;;;0.00;0.00;;;;;5.32;83.38;-18612.53;4959699;28;10906;-70
2022/04/08 04:12:09;;;;;;;;;0.25;0.00;;;;;5.30;83.44;-18611.94;4951946;28;10821;-70
2022/04/08 04:14:35;;;;;;;;;0.00;0.00;;;;;5.29;84.27;-18611.63;4939559;28;11020;-72
2022/04/08 04:17:02;;;;;;;;;0.25;0.00;;;;;5.28;83.84;-18611.50;4950241;28;11696;-71
2022/04/08 04:19:29;;;;;;;;;0.75;0.00;;;;;5.26;84.05;-18610.88;4954815;28;10843;-71
2022/04/08 04:21:55;;;;;;;;;0.00;0.00;;;;;5.27;83.76;-18611.03;4955644;28;11104;-71
2022/04/08 04:24:22;;;;;;;;;0.00;0.00;;;;;5.25;84.00;-18610.72;4955308;28;11620;-71
2022/04/08 04:26:48;;;;;;;;;0.00;0.00;;;;;5.25;83.25;-18610.72;4954841;28;10827;-70
2022/04/08 04:29:14;;;;;;;;;0.75;0.75;;;;;5.20;83.95;-18609.22;4953379;28;11077;-70
2022/04/08 04:31:41;;;;;;;;;2.00;0.00;;;;;5.23;84.17;-18609.97;4948192;28;11040;-70
2022/04/08 04:34:07;;;;;;;;;0.00;0.00;;;;;5.16;83.93;-18607.84;4955351;28;11028;-72
2022/04/08 04:36:34;;;;;;;;;0.00;0.00;;;;;5.20;84.37;-18609.22;4953871;28;10973;-71
2022/04/08 04:39:00;;;;;;;;;0.00;0.00;;;;;5.21;84.72;-18609.38;4969903;28;10930;-69
2022/04/08 04:41:27;;;;;;;;;0.00;0.00;;;;;5.16;84.10;-18607.84;4970245;28;11002;-69
2022/04/08 04:43:53;;;;;;;;;0.00;0.00;;;;;5.11;84.53;-18606.34;4954500;28;11197;-69
2022/04/08 04:46:24;;;;;;;;;1.00;1.00;;;;;5.12;84.30;-18606.66;4954546;28;11093;-69
2022/04/08 04:48:50;;;;;;;;;3.25;0.50;;;;;5.13;84.69;-18607.09;4953635;28;11085;-69
2022/04/08 04:51:17;;;;;;;;;1.00;1.00;;;;;5.16;84.81;-18608.00;4953777;28;11085;-70
2022/04/08 04:53:43;;;;;;;;;0.75;0.75;;;;;5.10;84.85;-18606.03;4952310;28;11135;-69
2022/04/08 04:56:10;;;;;;;;;0.00;0.00;;;;;5.12;84.86;-18606.81;4954637;28;11003;-69
2022/04/08 04:58:36;;;;;;;;;1.00;0.75;;;;;5.09;85.05;-18605.75;4946155;29;11038;-69
2022/04/08 05:01:03;;;;;;;;;2.00;0.00;;;;;5.13;85.08;-18606.94;4935729;29;11814;-70
2022/04/08 05:03:29;;;;;;;;;2.75;2.00;;;;;5.13;85.06;-18607.09;4948728;28;10916;-69
2022/04/08 05:05:56;;;;;;;;;0.00;0.00;;;;;5.13;85.52;-18606.94;4954152;28;11002;-70
2022/04/08 05:08:22;;;;;;;;;1.50;0.25;;;;;5.13;84.95;-18606.94;4954380;28;10970;-69
2022/04/08 05:10:49;;;;;;;;;1.50;1.00;;;;;5.11;85.19;-18606.50;4952894;28;11089;-69
2022/04/08 05:13:15;;;;;;;;;1.25;1.00;;;;;5.17;85.18;-18608.31;4953565;28;11256;-68
2022/04/08 05:15:45;;;;;;;;;3.00;0.00;;;;;5.18;85.05;-18608.63;4954114;28;10932;-70
2022/04/08 05:18:12;;;;;;;;;0.00;0.00;;;;;5.22;85.17;-18609.81;4952313;28;11114;-69
2022/04/08 05:20:38;;;;;;;;;0.50;0.50;;;;;5.18;84.67;-18608.47;4954451;28;10848;-69
2022/04/08 05:23:05;;;;;;;;;2.50;0.75;;;;;5.20;84.53;-18609.22;4953685;28;11144;-70
2022/04/08 05:25:31;;;;;;;;;2.25;0.00;;;;;5.25;84.68;-18610.72;4952245;28;11241;-70
2022/04/08 05:27:58;;;;;;;;;0.75;0.75;;;;;5.24;84.15;-18610.44;4948536;28;10996;-71
2022/04/08 05:30:24;;;;;;;;;0.00;0.00;;;;;5.30;83.97;-18611.94;4942625;28;11056;-70
2022/04/08 05:32:51;;;;;;;;;0.25;0.00;;;;;5.37;84.36;-18614.06;4943213;28;10989;-71
2022/04/08 05:35:18;;;;;;;;;5.00;3.50;;;;;5.36;83.89;-18613.91;4945188;29;10972;-70
2022/04/08 05:37:46;;;;;;;;;1.50;1.50;;;;;5.37;83.37;-18614.22;4937126;28;11111;-71
2022/04/08 05:40:15;;;;;;;;;2.00;2.00;;;;;5.47;83.84;-18617.09;4956595;28;11013;-71
2022/04/08 05:42:44;;;;;;;;;0.00;0.00;;;;;5.53;83.42;-18618.91;4956540;28;11001;-70
2022/04/08 05:45:11;;;;;;;;;3.50;1.25;;;;;5.52;82.88;-18618.75;4951112;28;10959;-71
2022/04/08 05:47:38;;;;;;;;;1.25;1.25;;;;;5.57;82.46;-18620.09;4953157;28;10926;-70
2022/04/08 05:50:06;;;;;;;;;0.00;0.00;;;;;5.61;82.33;-18621.16;4954065;28;11587;-71
2022/04/08 05:52:33;;;;;;;;;1.00;1.00;;;;;5.75;82.13;-18625.56;4953609;28;10835;-72
2022/04/08 05:54:59;;;;;;;;;0.00;0.00;;;;;5.81;81.80;-18627.22;4951033;28;10858;-70
2022/04/08 05:57:25;;;;;;;;;1.75;0.00;;;;;5.84;81.44;-18628.28;4951390;28;11587;-70
2022/04/08 05:59:58;;;;;;;;;2.00;1.00;;;;;5.85;81.03;-18628.56;4950798;28;10938;-69
2022/04/08 06:02:25;;;;;;;;;1.00;1.00;;;;;5.91;81.00;-18630.25;4951465;28;10845;-70
2022/04/08 06:04:51;;;;;;;;;0.50;0.00;;;;;6.06;80.67;-18634.78;4952735;28;10898;-68
2022/04/08 06:07:18;;;;;;;;;2.00;1.00;;;;;6.23;80.11;-18639.63;4952763;28;10897;-68
2022/04/08 06:09:44;;;;;;;;;1.00;1.00;;;;;6.49;79.58;-18647.47;4953566;28;11733;-69
2022/04/08 06:12:11;;;;;;;;;0.00;0.00;;;;;6.77;78.55;-18655.94;4952712;28;10911;-69
2022/04/08 06:14:37;;;;;;;;;0.25;0.25;;;;;6.99;76.82;-18662.44;4956791;28;10699;-69
2022/04/08 06:17:04;;;;;;;;;0.00;0.00;;;;;7.17;76.35;-18667.59;4952749;28;11596;-69
2022/04/08 06:19:30;;;;;;;;;0.25;0.00;;;;;7.32;75.28;-18672.28;4953313;28;10749;-69
2022/04/08 06:21:57;;;;;;;;;0.50;0.50;;;;;7.14;75.76;-18666.69;4952905;28;11443;-70
2022/04/08 06:24:24;;;;;;;;;0.75;0.00;;;;;6.88;75.15;-18659.13;4950835;28;10718;-70
2022/04/08 06:26:50;;;;;;;;;0.50;0.50;;;;;6.78;76.42;-18656.25;4952880;28;10623;-70
2022/04/08 06:29:17;;;;;;;;;2.00;1.00;;;;;6.83;76.60;-18657.63;4953008;28;10459;-69
2022/04/08 06:31:44;;;;;;;;;0.00;0.00;;;;;6.84;76.89;-18657.75;4953065;28;11372;-70
2022/04/08 06:34:11;;;;;;;;;0.00;0.00;;;;;6.91;76.76;-18659.88;4944730;29;10595;-69
2022/04/08 06:36:37;;;;;;;;;1.00;1.00;;;;;7.01;76.34;-18662.91;4945151;28;11243;-69
2022/04/08 06:39:04;;;;;;;;;3.50;1.00;;;;;7.56;80.50;-18679.22;4950786;28;10779;-71
2022/04/08 06:41:30;;;;;;;;;0.50;0.50;;;;;7.48;75.96;-18676.81;4951367;28;10560;-69
2022/04/08 06:43:58;;;;;;;;;1.50;1.00;;;;;7.59;74.54;-18680.28;4951360;28;10657;-69
2022/04/08 06:46:24;;;;;;;;;1.00;1.00;;;;;7.75;74.49;-18684.81;4955127;28;10642;-70
2022/04/08 06:48:51;;;;;;;;;1.00;1.00;;;;;7.73;74.27;-18684.34;4952291;28;10608;-69
2022/04/08 06:51:17;;;;;;;;;2.50;1.75;;;;;7.63;73.74;-18681.50;4953006;28;10633;-69
2022/04/08 06:53:44;;;;;;;;;1.00;1.00;;;;;7.69;74.55;-18683.31;4951806;28;10464;-70
2022/04/08 06:56:10;;;;;;;;;1.50;1.25;;;;;7.72;73.34;-18684.06;4951961;28;11340;-71
2022/04/08 06:58:39;;;;;;;;;1.00;0.00;;;;;7.98;73.69;-18691.75;4943754;28;10485;-70
2022/04/08 07:01:07;;;;;;;;;1.00;1.00;;;;;8.17;72.32;-18697.34;4951637;28;10482;-70
2022/04/08 07:03:34;;;;;;;;;1.00;1.00;;;;;8.24;72.56;-18699.47;4951850;28;10491;-70
2022/04/08 07:06:00;;;;;;;;;4.25;1.50;;;;;8.43;71.02;-18705.22;4933705;28;10466;-70
2022/04/08 07:08:27;;;;;;;;;1.00;1.00;;;;;8.68;70.13;-18712.47;4941846;28;10532;-71
2022/04/08 07:10:53;;;;;;;;;2.00;2.00;;;;;8.79;70.28;-18715.94;4950435;28;11191;-69
2022/04/08 07:13:20;;;;;;;;;0.50;0.50;;;;;8.93;68.55;-18720.16;4946024;28;10447;-69
2022/04/08 07:15:47;;;;;;;;;1.00;1.00;;;;;9.03;68.01;-18723.03;4931013;28;10266;-70
2022/04/08 07:18:13;;;;;;;;;1.25;0.00;;;;;9.25;68.31;-18729.53;4948050;28;10393;-69
2022/04/08 07:20:40;;;;;;;;;0.25;0.00;;;;;8.86;67.63;-18718.03;4948012;28;11171;-70
2022/04/08 07:23:06;;;;;;;;;0.50;0.50;;;;;9.04;67.68;-18723.34;4948857;28;11102;-71
2022/04/08 07:25:33;;;;;;;;;1.25;1.25;;;;;8.90;66.98;-18719.25;4947925;28;10376;-71
2022/04/08 07:27:59;;;;;;;;;0.00;0.00;;;;;9.18;67.71;-18727.41;4947300;28;10179;-71
2022/04/08 07:30:27;;;;;;;;;2.00;2.00;;;;;9.16;67.45;-18726.94;4946455;28;10971;-70
2022/04/08 07:32:56;;;;;;;;;2.25;0.50;;;;;9.27;66.99;-18729.97;4947501;28;11152;-70
2022/04/08 07:35:25;;;;;;;;;6.75;2.25;;;;;8.80;67.10;-18716.22;4949636;28;10212;-70
2022/04/08 07:37:53;;;;;;;;;0.25;0.25;;;;;8.63;67.60;-18711.09;4949067;28;10898;-70
2022/04/08 07:40:20;;;;;;;;;1.00;0.00;;;;;8.54;67.30;-18708.38;4948968;29;9933;-71
2022/04/08 07:42:47;;;;;;;;;7.75;1.00;;;;;8.59;67.91;-18709.88;4949079;28;10969;-71
2022/04/08 07:45:14;;;;;;;;;0.25;0.25;;;;;8.37;67.29;-18703.41;4948966;28;10317;-71
2022/04/08 07:47:41;;;;;;;;;1.25;1.25;;;;;8.17;67.47;-18697.34;4949102;28;10288;-71
2022/04/08 07:50:10;;;;;;;;;0.00;0.00;;;;;8.31;67.93;-18701.56;4946998;29;10300;-71
2022/04/08 07:52:38;;;;;;;;;1.00;1.00;;;;;8.72;66.40;-18713.81;4947501;28;10175;-70
2022/04/08 07:55:06;;;;;;;;;1.00;1.00;;;;;8.72;65.82;-18713.81;4952784;28;10459;-71
2022/04/08 07:57:32;;;;;;;;;0.75;0.75;;;;;9.01;66.79;-18722.28;4952354;28;10319;-73
2022/04/08 07:59:59;;;;;;;;;1.00;1.00;;;;;8.75;67.01;-18714.56;4953073;28;10571;-71
2022/04/08 08:02:29;;;;;;;;;1.50;1.00;;;;;8.64;67.62;-18711.41;4952354;28;10418;-70
2022/04/08 08:04:55;;;;;;;;;0.50;0.50;;;;;8.63;67.57;-18711.25;4952452;28;10384;-70
2022/04/08 08:07:21;;;;;;;;;2.00;2.00;;;;;8.71;67.19;-18713.38;4955964;28;10314;-71
2022/04/08 08:09:48;;;;;;;;;2.50;1.00;;;;;8.92;66.51;-18719.84;4953273;28;10139;-71
2022/04/08 08:12:22;;;;;;;;;0.75;0.75;;;;;9.13;66.00;-18725.91;4952800;28;10183;-71
2022/04/08 08:14:49;;;;;;;;;0.25;0.25;;;;;9.28;66.20;-18730.44;4952664;28;10243;-72
2022/04/08 08:17:15;;;;;;;;;1.00;1.00;;;;;9.33;65.56;-18731.78;4951455;28;10252;-71
2022/04/08 08:19:42;;;;;;;;;1.00;1.00;;;;;9.36;63.28;-18732.84;4952718;28;10494;-71
2022/04/08 08:22:08;;;;;;;;;1.50;1.50;;;;;9.51;62.52;-18737.38;4950928;28;10268;-71
2022/04/08 08:24:35;;;;;;;;;0.25;0.00;;;;;9.65;62.41;-18741.28;4950765;28;10190;-72
2022/04/08 08:27:01;;;;;;;;;0.75;0.75;;;;;10.71;69.90;-18772.84;4954989;28;10003;-65
2022/04/08 08:29:28;;;;;;;;;0.00;0.00;;;;;12.00;69.53;-18811.16;4954327;28;10023;-66
2022/04/08 08:31:54;;;;;;;;;1.00;1.00;;;;;11.81;57.42;-18805.41;4954148;28;9960;-69
2022/04/08 08:34:21;;;;;;;;;1.00;1.00;;;;;11.24;56.37;-18788.53;4945493;28;9778;-70
2022/04/08 08:36:48;;;;;;;;;2.00;1.00;;;;;10.57;58.11;-18768.75;4955310;28;9917;-69
2022/04/08 08:39:15;;;;;;;;;2.00;0.75;;;;;10.70;59.15;-18772.53;4969982;28;10030;-70
2022/04/08 08:41:42;;;;;;;;;1.50;1.50;;;;;10.36;59.29;-18762.44;4955284;28;9977;-70
2022/04/08 08:44:10;;;;;;;;;1.00;1.00;;;;;10.08;58.31;-18754.13;4943744;28;10150;-69
2022/04/08 08:46:36;;;;;;;;;1.75;1.00;;;;;10.27;58.62;-18759.72;4948391;28;9994;-69
2022/04/08 08:49:04;;;;;;;;;3.00;1.75;;;;;10.06;57.95;-18753.53;4954716;28;10011;-69
2022/04/08 08:51:36;;;;;;;;;0.50;0.50;;;;;10.39;58.93;-18763.34;4953595;28;10052;-69
2022/04/08 08:54:02;;;;;;;;;4.00;0.75;;;;;10.56;57.06;-18768.47;4952361;28;10092;-72
2022/04/08 08:56:29;;;;;;;;;1.00;1.00;;;;;10.17;58.33;-18757.00;4969856;28;10125;-69
2022/04/08 08:58:56;;;;;;;;;3.50;1.00;;;;;9.96;59.32;-18750.50;4969231;28;10192;-69
2022/04/08 09:01:23;;;;;;;;;3.25;1.50;;;;;9.63;59.81;-18740.84;4953481;28;9939;-69
2022/04/08 09:03:49;;;;;;;;;1.75;1.25;;;;;9.61;60.00;-18740.25;4954177;28;10003;-69
2022/04/08 09:06:17;;;;;;;;;3.00;1.00;;;;;9.74;59.76;-18744.00;4934847;29;10197;-69
2022/04/08 09:08:54;;;;;;;;;1.25;1.00;;;;;9.83;59.72;-18746.88;4950490;28;10041;-69
2022/04/08 09:11:25;;;;;;;;;2.75;2.75;;;;;10.06;57.91;-18753.53;4954622;28;10101;-70
2022/04/08 09:13:51;;;;;;;;;1.75;1.75;;;;;10.22;57.51;-18758.19;4954803;28;10089;-69
2022/04/08 09:16:27;;;;;;;;;0.75;0.75;;;;;10.12;58.32;-18755.47;4968558;28;10313;-69
2022/04/08 09:18:54;;;;;;;;;2.00;2.00;;;;;9.92;57.63;-18749.28;4968992;28;10170;-70
2022/04/08 09:21:24;;;;;;;;;3.50;1.50;;;;;9.85;58.95;-18747.47;4954575;28;10512;-68
2022/04/08 09:23:52;;;;;;;;;2.50;2.00;;;;;9.56;57.79;-18738.88;4954188;28;10211;-70
2022/04/08 09:26:19;;;;;;;;;0.00;0.00;;;;;9.39;57.22;-18733.59;4953928;28;10174;-69
2022/04/08 09:28:46;;;;;;;;;1.00;1.00;;;;;9.36;58.12;-18732.69;4953700;28;10106;-68
2022/04/08 09:31:18;;;;;;;;;1.00;1.00;;;;;9.34;58.29;-18732.09;4943510;28;10234;-68
2022/04/08 09:33:55;;;;;;;;;2.25;2.00;;;;;9.36;59.97;-18732.84;4949892;28;10288;-68
2022/04/08 09:36:27;;;;;;;;;2.00;0.75;;;;;9.43;60.26;-18734.81;4965192;28;10959;-69
2022/04/08 09:38:53;;;;;;;;;1.75;0.75;;;;;9.53;59.87;-18737.81;4953669;28;10343;-70
2022/04/08 09:41:20;;;;;;;;;0.00;0.00;;;;;9.46;59.45;-18735.88;4954474;28;10016;-69
2022/04/08 09:43:46;;;;;;;;;1.00;1.00;;;;;9.31;59.32;-18731.19;4953919;28;10968;-69
2022/04/08 09:46:21;;;;;;;;;2.00;1.00;;;;;9.25;58.70;-18729.66;4954063;28;10165;-70
2022/04/08 09:48:48;;;;;;;;;1.00;1.00;;;;;9.28;59.04;-18730.44;4951024;28;10319;-69
2022/04/08 09:51:20;;;;;;;;;2.00;2.00;;;;;9.38;59.01;-18733.28;4933183;29;10097;-69
2022/04/08 09:53:53;;;;;;;;;1.25;1.25;;;;;9.40;58.43;-18733.91;4950028;28;10181;-70
2022/04/08 09:56:23;;;;;;;;;1.00;1.00;;;;;9.35;58.50;-18732.38;4953873;28;10073;-69
2022/04/08 09:58:55;;;;;;;;;2.25;2.00;;;;;9.40;58.83;-18733.91;4953254;28;10193;-70
2022/04/08 10:01:25;;;;;;;;;1.25;1.25;;;;;9.44;58.97;-18735.25;4968520;28;10123;-69
2022/04/08 10:03:53;;;;;;;;;0.00;0.00;;;;;9.53;59.91;-18737.97;4953446;28;10235;-69
2022/04/08 10:06:19;;;;;;;;;3.50;1.75;;;;;9.56;59.90;-18738.88;4952484;28;10173;-69
2022/04/08 10:08:47;;;;;;;;;3.00;1.00;;;;;9.76;59.79;-18744.75;4952769;28;10967;-69
2022/04/08 10:11:22;;;;;;;;;3.00;3.00;;;;;9.76;58.77;-18744.75;4952961;28;10897;-68
2022/04/08 10:14:04;;;;;;;;;3.00;2.50;;;;;9.90;59.09;-18748.84;4952967;28;10276;-69
2022/04/08 10:16:31;;;;;;;;;2.00;2.00;;;;;10.20;58.82;-18757.59;4952828;28;10226;-70
2022/04/08 10:19:04;;;;;;;;;1.00;1.00;;;;;10.38;56.42;-18763.03;4952511;28;10072;-70
2022/04/08 10:21:40;;;;;;;;;1.50;1.50;;;;;10.37;57.75;-18762.88;4953193;28;10228;-70
2022/04/08 10:24:10;;;;;;;;;2.00;2.00;;;;;10.44;57.96;-18764.84;4953007;28;9866;-69
2022/04/08 10:26:56;;;;;;;;;2.50;2.00;;;;;10.38;56.85;-18763.19;4952664;28;10221;-70
2022/04/08 10:29:23;;;;;;;;;2.50;1.50;;;;;10.44;57.07;-18764.84;4933984;29;10021;-70
2022/04/08 10:31:57;;;;;;;;;5.50;2.25;;;;;10.41;56.73;-18763.94;4938160;28;10634;-69
2022/04/08 10:34:25;;;;;;;;;1.75;1.50;;;;;10.38;58.48;-18763.19;4951896;28;9947;-70
2022/04/08 10:36:52;;;;;;;;;0.75;0.75;;;;;10.31;58.24;-18760.91;4933871;28;9958;-69
2022/04/08 10:39:23;;;;;;;;;3.00;3.00;;;;;9.95;58.56;-18750.34;4948440;28;10026;-70
2022/04/08 10:42:03;;;;;;;;;1.50;1.50;;;;;9.68;60.41;-18742.34;4934290;28;10815;-70
2022/04/08 10:44:31;;;;;;;;;2.75;2.75;;;;;9.04;62.26;-18723.34;4933857;28;10083;-70
2022/04/08 10:47:00;;;;;;;;;2.00;1.75;;;;;8.70;66.27;-18713.06;4948236;28;10157;-70
2022/04/08 10:49:27;;;;;;;;;1.25;1.25;;;;;8.70;67.08;-18713.06;4941833;28;10036;-68
2022/04/08 10:51:53;;;;;;;;;0.00;0.00;;;;;8.64;67.05;-18711.41;4952029;28;10075;-69
2022/04/08 10:54:20;;;;;;;;;1.75;1.75;;;;;8.68;67.42;-18712.63;4953053;28;10190;-69
2022/04/08 10:56:57;;;;;;;;;1.50;1.50;;;;;8.99;68.93;-18721.81;4952329;28;10181;-71
2022/04/08 10:59:28;;;;;;;;;0.75;0.75;;;;;9.17;67.43;-18727.09;4932464;28;10272;-69
2022/04/08 11:02:02;;;;;;;;;2.00;2.00;;;;;9.00;66.02;-18722.13;4934036;28;10303;-70
2022/04/08 11:04:29;;;;;;;;;1.50;1.50;;;;;9.35;66.96;-18732.53;4952669;28;10468;-69
2022/04/08 11:07:02;;;;;;;;;2.50;2.50;;;;;9.45;65.63;-18735.41;4950150;28;10475;-69
2022/04/08 11:09:30;;;;;;;;;3.00;2.00;;;;;9.60;65.67;-18739.94;4952448;28;10597;-71
2022/04/08 11:11:56;;;;;;;;;4.00;2.00;;;;;9.32;65.05;-18731.47;4951399;28;10326;-71
2022/04/08 11:14:23;;;;;;;;;2.25;2.00;;;;;9.54;65.58;-18738.28;4950595;28;10307;-71
2022/04/08 11:16:50;;;;;;;;;2.75;1.00;;;;;9.41;62.44;-18734.19;4965302;28;10514;-69
2022/04/08 11:19:20;;;;;;;;;2.00;2.00;;;;;9.50;59.22;-18737.06;4952445;28;10158;-70
2022/04/08 11:21:52;;;;;;;;;0.25;0.25;;;;;9.80;59.36;-18745.97;4952296;28;10205;-69
2022/04/08 11:24:18;;;;;;;;;1.00;1.00;;;;;10.02;57.11;-18752.47;4936997;28;10099;-70
2022/04/08 11:26:48;;;;;;;;;0.25;0.25;;;;;10.14;58.30;-18756.09;4948213;28;10121;-70
2022/04/08 11:29:19;;;;;;;;;2.00;2.00;;;;;10.28;57.91;-18760.00;4965381;28;10107;-72
2022/04/08 11:31:47;;;;;;;;;0.00;0.00;;;;;10.28;58.38;-18760.16;4946255;28;10579;-70
2022/04/08 11:34:14;;;;;;;;;5.00;3.00;;;;;10.29;58.42;-18760.31;4934365;29;10027;-70